sensor_id;sensor_type;location;lat;lon;timestamp;P1;durP1;ratioP1;P2;durP2;ratioP2
58697;SDS011;44475;53.206;-6.106;2023-02-28T00:01:09;15.25;;;2.85;;
58697;SDS011;44475;53.206;-6.106;2023-02-28T00:03:37;10.82;;;2.78;;
58697;SDS011;44475;53.206;-6.106;2023-02-28T00:06:04;10.43;;;2.85;;
58697;SDS011;44475;53.206;-6.106;2023-02-28T00:08:31;9.27;;;2.50;;
58697;SDS011;44475;53.206;-6.106;2023-02-28T00:11:01;8.50;;;2.47;;
58697;SDS011;44475;53.206;-6.106;2023-02-28T00:13:28;13.38;;;2.45;;
58697;SDS011;44475;53.206;-6.106;2023-02-28T00:15:58;8.00;;;2.20;;
58697;SDS011;44475;53.206;-6.106;2023-02-28T00:18:25;7.55;;;2.22;;
58697;SDS011;44475;53.206;-6.106;2023-02-28T00:20:51;9.05;;;2.28;;
58697;SDS011;44475;53.206;-6.106;2023-02-28T00:23:18;9.65;;;2.65;;
58697;SDS011;44475;53.206;-6.106;2023-02-28T00:25:44;6.40;;;2.13;;
58697;SDS011;44475;53.206;-6.106;2023-02-28T00:28:10;9.43;;;2.30;;
58697;SDS011;44475;53.206;-6.106;2023-02-28T00:30:36;9.38;;;2.25;;
58697;SDS011;44475;53.206;-6.106;2023-02-28T00:33:03;7.13;;;2.03;;
58697;SDS011;44475;53.206;-6.106;2023-02-28T00:35:30;7.88;;;1.98;;
58697;SDS011;44475;53.206;-6.106;2023-02-28T00:37:56;7.85;;;2.22;;
58697;SDS011;44475;53.206;-6.106;2023-02-28T00:40:22;10.15;;;2.67;;
58697;SDS011;44475;53.206;-6.106;2023-02-28T00:42:48;10.02;;;2.22;;
58697;SDS011;44475;53.206;-6.106;2023-02-28T00:45:16;5.20;;;1.85;;
58697;SDS011;44475;53.206;-6.106;2023-02-28T00:47:42;7.05;;;2.05;;
58697;SDS011;44475;53.206;-6.106;2023-02-28T00:50:08;10.02;;;1.95;;
58697;SDS011;44475;53.206;-6.106;2023-02-28T00:52:35;7.80;;;2.13;;
58697;SDS011;44475;53.206;-6.106;2023-02-28T00:55:02;11.10;;;2.40;;
58697;SDS011;44475;53.206;-6.106;2023-02-28T00:57:28;7.82;;;1.90;;
58697;SDS011;44475;53.206;-6.106;2023-02-28T00:59:54;9.77;;;2.10;;
58697;SDS011;44475;53.206;-6.106;2023-02-28T01:02:21;5.65;;;2.03;;
58697;SDS011;44475;53.206;-6.106;2023-02-28T01:04:47;5.63;;;1.95;;
58697;SDS011;44475;53.206;-6.106;2023-02-28T01:07:14;11.43;;;2.10;;
58697;SDS011;44475;53.206;-6.106;2023-02-28T01:09:40;6.63;;;2.13;;
58697;SDS011;44475;53.206;-6.106;2023-02-28T01:12:07;6.03;;;1.90;;
58697;SDS011;44475;53.206;-6.106;2023-02-28T01:14:34;6.20;;;1.80;;
58697;SDS011;44475;53.206;-6.106;2023-02-28T01:17:01;7.63;;;1.80;;
58697;SDS011;44475;53.206;-6.106;2023-02-28T01:19:28;7.05;;;1.80;;
58697;SDS011;44475;53.206;-6.106;2023-02-28T01:21:54;5.95;;;1.88;;
58697;SDS011;44475;53.206;-6.106;2023-02-28T01:24:20;9.20;;;2.10;;
58697;SDS011;44475;53.206;-6.106;2023-02-28T01:26:46;5.55;;;1.60;;
58697;SDS011;44475;53.206;-6.106;2023-02-28T01:29:13;4.65;;;1.75;;
58697;SDS011;44475;53.206;-6.106;2023-02-28T01:31:40;4.05;;;1.60;;
58697;SDS011;44475;53.206;-6.106;2023-02-28T01:34:07;5.38;;;1.70;;
58697;SDS011;44475;53.206;-6.106;2023-02-28T01:36:33;4.93;;;1.63;;
58697;SDS011;44475;53.206;-6.106;2023-02-28T01:38:59;5.20;;;1.88;;
58697;SDS011;44475;53.206;-6.106;2023-02-28T01:41:27;5.97;;;1.63;;
58697;SDS011;44475;53.206;-6.106;2023-02-28T01:43:59;5.25;;;1.83;;
58697;SDS011;44475;53.206;-6.106;2023-02-28T01:46:28;3.28;;;1.65;;
58697;SDS011;44475;53.206;-6.106;2023-02-28T01:51:39;3.33;;;1.75;;
58697;SDS011;44475;53.206;-6.106;2023-02-28T01:54:25;4.88;;;1.60;;
58697;SDS011;44475;53.206;-6.106;2023-02-28T01:56:59;3.70;;;1.70;;
58697;SDS011;44475;53.206;-6.106;2023-02-28T02:02:20;3.20;;;1.30;;
58697;SDS011;44475;53.206;-6.106;2023-02-28T02:05:08;4.68;;;1.60;;
58697;SDS011;44475;53.206;-6.106;2023-02-28T02:07:40;3.85;;;1.50;;
58697;SDS011;44475;53.206;-6.106;2023-02-28T02:10:16;3.08;;;1.60;;
58697;SDS011;44475;53.206;-6.106;2023-02-28T02:15:17;2.33;;;1.30;;
58697;SDS011;44475;53.206;-6.106;2023-02-28T02:20:57;3.63;;;1.40;;
58697;SDS011;44475;53.206;-6.106;2023-02-28T02:32:47;2.88;;;1.27;;
58697;SDS011;44475;53.206;-6.106;2023-02-28T02:35:23;2.72;;;1.40;;
58697;SDS011;44475;53.206;-6.106;2023-02-28T02:43:26;3.33;;;1.40;;
58697;SDS011;44475;53.206;-6.106;2023-02-28T02:46:06;3.38;;;1.23;;
58697;SDS011;44475;53.206;-6.106;2023-02-28T02:48:50;4.55;;;1.50;;
58697;SDS011;44475;53.206;-6.106;2023-02-28T02:51:20;2.13;;;1.30;;
58697;SDS011;44475;53.206;-6.106;2023-02-28T02:53:54;3.30;;;1.30;;
58697;SDS011;44475;53.206;-6.106;2023-02-28T02:56:22;3.35;;;1.40;;
58697;SDS011;44475;53.206;-6.106;2023-02-28T02:58:53;3.58;;;1.50;;
58697;SDS011;44475;53.206;-6.106;2023-02-28T03:01:26;3.35;;;1.40;;
58697;SDS011;44475;53.206;-6.106;2023-02-28T03:04:30;2.20;;;1.40;;
58697;SDS011;44475;53.206;-6.106;2023-02-28T03:06:50;2.15;;;1.30;;
58697;SDS011;44475;53.206;-6.106;2023-02-28T03:09:21;2.47;;;1.40;;
58697;SDS011;44475;53.206;-6.106;2023-02-28T03:11:48;1.45;;;1.20;;
58697;SDS011;44475;53.206;-6.106;2023-02-28T03:30:13;1.77;;;1.20;;
58697;SDS011;44475;53.206;-6.106;2023-02-28T03:32:43;2.08;;;1.23;;
58697;SDS011;44475;53.206;-6.106;2023-02-28T03:35:16;2.08;;;1.27;;
58697;SDS011;44475;53.206;-6.106;2023-02-28T03:37:50;1.63;;;1.10;;
58697;SDS011;44475;53.206;-6.106;2023-02-28T03:40:27;1.08;;;1.02;;
58697;SDS011;44475;53.206;-6.106;2023-02-28T03:42:59;1.63;;;1.25;;
58697;SDS011;44475;53.206;-6.106;2023-02-28T03:45:33;1.80;;;1.25;;
58697;SDS011;44475;53.206;-6.106;2023-02-28T03:50:44;2.08;;;1.30;;
58697;SDS011;44475;53.206;-6.106;2023-02-28T03:53:14;2.08;;;1.30;;
58697;SDS011;44475;53.206;-6.106;2023-02-28T04:01:28;2.50;;;1.20;;
58697;SDS011;44475;53.206;-6.106;2023-02-28T04:04:01;2.60;;;1.02;;
58697;SDS011;44475;53.206;-6.106;2023-02-28T04:06:29;2.10;;;1.20;;
58697;SDS011;44475;53.206;-6.106;2023-02-28T04:08:57;2.75;;;1.20;;
58697;SDS011;44475;53.206;-6.106;2023-02-28T04:11:35;1.33;;;1.00;;
58697;SDS011;44475;53.206;-6.106;2023-02-28T04:14:04;2.50;;;1.20;;
58697;SDS011;44475;53.206;-6.106;2023-02-28T04:16:32;2.35;;;1.10;;
58697;SDS011;44475;53.206;-6.106;2023-02-28T04:19:00;1.73;;;1.08;;
58697;SDS011;44475;53.206;-6.106;2023-02-28T04:21:34;1.80;;;1.20;;
58697;SDS011;44475;53.206;-6.106;2023-02-28T04:24:09;2.03;;;1.27;;
58697;SDS011;44475;53.206;-6.106;2023-02-28T04:26:40;1.75;;;1.23;;
58697;SDS011;44475;53.206;-6.106;2023-02-28T04:29:09;1.23;;;1.13;;
58697;SDS011;44475;53.206;-6.106;2023-02-28T04:31:37;1.30;;;1.20;;
58697;SDS011;44475;53.206;-6.106;2023-02-28T04:34:03;2.50;;;1.17;;
58697;SDS011;44475;53.206;-6.106;2023-02-28T04:36:30;2.05;;;1.10;;
58697;SDS011;44475;53.206;-6.106;2023-02-28T04:38:56;2.17;;;1.10;;
58697;SDS011;44475;53.206;-6.106;2023-02-28T04:41:23;1.60;;;1.27;;
58697;SDS011;44475;53.206;-6.106;2023-02-28T04:43:50;2.38;;;1.20;;
58697;SDS011;44475;53.206;-6.106;2023-02-28T04:46:17;1.83;;;1.08;;
58697;SDS011;44475;53.206;-6.106;2023-02-28T04:48:45;2.80;;;1.05;;
58697;SDS011;44475;53.206;-6.106;2023-02-28T04:51:12;2.03;;;1.10;;
58697;SDS011;44475;53.206;-6.106;2023-02-28T04:53:40;2.75;;;1.17;;
58697;SDS011;44475;53.206;-6.106;2023-02-28T04:56:08;1.48;;;1.10;;
58697;SDS011;44475;53.206;-6.106;2023-02-28T04:58:37;1.50;;;1.10;;
58697;SDS011;44475;53.206;-6.106;2023-02-28T05:01:13;1.65;;;1.00;;
58697;SDS011;44475;53.206;-6.106;2023-02-28T05:03:43;2.70;;;1.23;;
58697;SDS011;44475;53.206;-6.106;2023-02-28T05:06:10;0.90;;;0.90;;
58697;SDS011;44475;53.206;-6.106;2023-02-28T05:08:37;2.00;;;1.20;;
58697;SDS011;44475;53.206;-6.106;2023-02-28T05:11:05;1.33;;;1.00;;
58697;SDS011;44475;53.206;-6.106;2023-02-28T05:13:38;1.98;;;0.90;;
58697;SDS011;44475;53.206;-6.106;2023-02-28T05:16:05;1.25;;;1.10;;
58697;SDS011;44475;53.206;-6.106;2023-02-28T05:18:31;2.08;;;1.20;;
58697;SDS011;44475;53.206;-6.106;2023-02-28T05:20:57;1.20;;;0.90;;
58697;SDS011;44475;53.206;-6.106;2023-02-28T05:23:27;2.13;;;1.15;;
58697;SDS011;44475;53.206;-6.106;2023-02-28T05:25:53;2.00;;;1.10;;
58697;SDS011;44475;53.206;-6.106;2023-02-28T05:28:20;2.42;;;1.20;;
58697;SDS011;44475;53.206;-6.106;2023-02-28T05:30:47;2.50;;;1.10;;
58697;SDS011;44475;53.206;-6.106;2023-02-28T05:33:13;0.95;;;0.88;;
58697;SDS011;44475;53.206;-6.106;2023-02-28T05:35:40;1.58;;;1.00;;
58697;SDS011;44475;53.206;-6.106;2023-02-28T05:38:07;3.17;;;0.90;;
58697;SDS011;44475;53.206;-6.106;2023-02-28T05:40:34;0.98;;;0.98;;
58697;SDS011;44475;53.206;-6.106;2023-02-28T05:43:02;1.10;;;1.00;;
58697;SDS011;44475;53.206;-6.106;2023-02-28T05:45:29;1.88;;;0.95;;
58697;SDS011;44475;53.206;-6.106;2023-02-28T05:47:55;0.90;;;0.90;;
58697;SDS011;44475;53.206;-6.106;2023-02-28T05:50:21;1.27;;;1.00;;
58697;SDS011;44475;53.206;-6.106;2023-02-28T05:52:51;0.90;;;0.90;;
58697;SDS011;44475;53.206;-6.106;2023-02-28T05:55:17;1.73;;;1.10;;
58697;SDS011;44475;53.206;-6.106;2023-02-28T05:57:44;1.08;;;1.00;;
58697;SDS011;44475;53.206;-6.106;2023-02-28T06:00:10;0.98;;;0.88;;
58697;SDS011;44475;53.206;-6.106;2023-02-28T06:02:38;0.88;;;0.82;;
58697;SDS011;44475;53.206;-6.106;2023-02-28T06:05:06;1.13;;;0.82;;
58697;SDS011;44475;53.206;-6.106;2023-02-28T06:07:39;1.63;;;1.00;;
58697;SDS011;44475;53.206;-6.106;2023-02-28T06:10:05;1.35;;;0.80;;
58697;SDS011;44475;53.206;-6.106;2023-02-28T06:12:32;1.10;;;1.00;;
58697;SDS011;44475;53.206;-6.106;2023-02-28T06:14:58;1.50;;;0.90;;
58697;SDS011;44475;53.206;-6.106;2023-02-28T06:17:24;2.75;;;0.93;;
58697;SDS011;44475;53.206;-6.106;2023-02-28T06:19:50;0.80;;;0.80;;
58697;SDS011;44475;53.206;-6.106;2023-02-28T06:22:16;1.55;;;0.90;;
58697;SDS011;44475;53.206;-6.106;2023-02-28T06:24:43;1.27;;;0.93;;
58697;SDS011;44475;53.206;-6.106;2023-02-28T06:27:09;1.30;;;0.90;;
58697;SDS011;44475;53.206;-6.106;2023-02-28T06:29:35;1.05;;;0.95;;
58697;SDS011;44475;53.206;-6.106;2023-02-28T06:32:04;3.97;;;1.13;;
58697;SDS011;44475;53.206;-6.106;2023-02-28T06:34:31;3.03;;;0.90;;
58697;SDS011;44475;53.206;-6.106;2023-02-28T06:36:58;4.63;;;0.93;;
58697;SDS011;44475;53.206;-6.106;2023-02-28T06:39:29;4.53;;;1.02;;
58697;SDS011;44475;53.206;-6.106;2023-02-28T06:41:55;1.10;;;0.90;;
58697;SDS011;44475;53.206;-6.106;2023-02-28T06:44:22;5.40;;;0.80;;
58697;SDS011;44475;53.206;-6.106;2023-02-28T06:46:49;1.67;;;0.90;;
58697;SDS011;44475;53.206;-6.106;2023-02-28T06:49:15;1.15;;;0.98;;
58697;SDS011;44475;53.206;-6.106;2023-02-28T06:51:43;3.03;;;0.70;;
58697;SDS011;44475;53.206;-6.106;2023-02-28T06:54:10;2.15;;;1.00;;
58697;SDS011;44475;53.206;-6.106;2023-02-28T06:56:37;1.30;;;1.00;;
58697;SDS011;44475;53.206;-6.106;2023-02-28T06:59:03;1.52;;;0.80;;
58697;SDS011;44475;53.206;-6.106;2023-02-28T07:01:30;1.05;;;0.82;;
58697;SDS011;44475;53.206;-6.106;2023-02-28T07:03:59;3.50;;;1.00;;
58697;SDS011;44475;53.206;-6.106;2023-02-28T07:06:26;2.38;;;0.95;;
58697;SDS011;44475;53.206;-6.106;2023-02-28T07:08:53;2.45;;;1.00;;
58697;SDS011;44475;53.206;-6.106;2023-02-28T07:11:20;1.65;;;0.90;;
58697;SDS011;44475;53.206;-6.106;2023-02-28T07:13:48;2.65;;;0.90;;
58697;SDS011;44475;53.206;-6.106;2023-02-28T07:16:16;1.33;;;0.80;;
58697;SDS011;44475;53.206;-6.106;2023-02-28T07:18:42;2.13;;;0.80;;
58697;SDS011;44475;53.206;-6.106;2023-02-28T07:21:09;3.22;;;0.90;;
58697;SDS011;44475;53.206;-6.106;2023-02-28T07:23:36;3.53;;;0.90;;
58697;SDS011;44475;53.206;-6.106;2023-02-28T07:26:04;5.85;;;1.08;;
58697;SDS011;44475;53.206;-6.106;2023-02-28T07:28:32;4.28;;;1.17;;
58697;SDS011;44475;53.206;-6.106;2023-02-28T07:31:05;8.98;;;1.65;;
58697;SDS011;44475;53.206;-6.106;2023-02-28T07:33:32;3.40;;;1.20;;
58697;SDS011;44475;53.206;-6.106;2023-02-28T07:36:06;1.50;;;0.70;;
58697;SDS011;44475;53.206;-6.106;2023-02-28T07:38:39;1.55;;;0.90;;
58697;SDS011;44475;53.206;-6.106;2023-02-28T07:41:05;2.45;;;0.82;;
58697;SDS011;44475;53.206;-6.106;2023-02-28T07:43:31;1.58;;;0.98;;
58697;SDS011;44475;53.206;-6.106;2023-02-28T07:46:08;4.32;;;1.00;;
58697;SDS011;44475;53.206;-6.106;2023-02-28T07:48:37;4.32;;;1.00;;
58697;SDS011;44475;53.206;-6.106;2023-02-28T07:51:03;17.15;;;2.20;;
58697;SDS011;44475;53.206;-6.106;2023-02-28T07:53:30;25.02;;;2.17;;
58697;SDS011;44475;53.206;-6.106;2023-02-28T07:55:56;21.02;;;2.22;;
58697;SDS011;44475;53.206;-6.106;2023-02-28T07:58:24;17.55;;;2.08;;
58697;SDS011;44475;53.206;-6.106;2023-02-28T08:00:51;12.52;;;1.70;;
58697;SDS011;44475;53.206;-6.106;2023-02-28T08:03:18;17.38;;;1.73;;
58697;SDS011;44475;53.206;-6.106;2023-02-28T08:05:45;12.10;;;1.52;;
58697;SDS011;44475;53.206;-6.106;2023-02-28T08:08:13;6.25;;;1.25;;
58697;SDS011;44475;53.206;-6.106;2023-02-28T08:10:40;7.55;;;1.30;;
58697;SDS011;44475;53.206;-6.106;2023-02-28T08:13:06;7.53;;;1.38;;
58697;SDS011;44475;53.206;-6.106;2023-02-28T08:15:33;4.47;;;1.40;;
58697;SDS011;44475;53.206;-6.106;2023-02-28T08:17:59;5.68;;;1.27;;
58697;SDS011;44475;53.206;-6.106;2023-02-28T08:20:26;6.47;;;1.27;;
58697;SDS011;44475;53.206;-6.106;2023-02-28T08:22:52;4.95;;;1.30;;
58697;SDS011;44475;53.206;-6.106;2023-02-28T08:25:18;6.80;;;1.40;;
58697;SDS011;44475;53.206;-6.106;2023-02-28T08:27:45;9.43;;;1.35;;
58697;SDS011;44475;53.206;-6.106;2023-02-28T08:30:12;9.10;;;1.38;;
58697;SDS011;44475;53.206;-6.106;2023-02-28T08:32:40;6.22;;;1.52;;
58697;SDS011;44475;53.206;-6.106;2023-02-28T08:35:06;6.13;;;1.30;;
58697;SDS011;44475;53.206;-6.106;2023-02-28T08:37:34;2.22;;;1.10;;
58697;SDS011;44475;53.206;-6.106;2023-02-28T08:40:00;3.63;;;1.23;;
58697;SDS011;44475;53.206;-6.106;2023-02-28T08:42:29;4.90;;;1.17;;
58697;SDS011;44475;53.206;-6.106;2023-02-28T08:44:55;2.78;;;1.20;;
58697;SDS011;44475;53.206;-6.106;2023-02-28T08:47:21;4.15;;;1.25;;
58697;SDS011;44475;53.206;-6.106;2023-02-28T08:49:47;4.88;;;1.17;;
58697;SDS011;44475;53.206;-6.106;2023-02-28T08:52:14;3.80;;;0.93;;
58697;SDS011;44475;53.206;-6.106;2023-02-28T08:54:40;2.97;;;1.13;;
58697;SDS011;44475;53.206;-6.106;2023-02-28T08:57:06;7.57;;;1.20;;
58697;SDS011;44475;53.206;-6.106;2023-02-28T08:59:32;6.88;;;1.55;;
58697;SDS011;44475;53.206;-6.106;2023-02-28T09:02:00;5.63;;;1.50;;
58697;SDS011;44475;53.206;-6.106;2023-02-28T09:04:26;10.52;;;1.50;;
58697;SDS011;44475;53.206;-6.106;2023-02-28T09:06:55;14.38;;;2.00;;
58697;SDS011;44475;53.206;-6.106;2023-02-28T09:09:22;11.82;;;1.38;;
58697;SDS011;44475;53.206;-6.106;2023-02-28T09:11:48;20.58;;;1.65;;
58697;SDS011;44475;53.206;-6.106;2023-02-28T09:14:14;9.73;;;1.38;;
58697;SDS011;44475;53.206;-6.106;2023-02-28T09:16:42;16.60;;;2.15;;
58697;SDS011;44475;53.206;-6.106;2023-02-28T09:19:10;14.35;;;1.95;;
58697;SDS011;44475;53.206;-6.106;2023-02-28T09:21:37;17.92;;;1.58;;
58697;SDS011;44475;53.206;-6.106;2023-02-28T09:24:04;6.78;;;1.48;;
58697;SDS011;44475;53.206;-6.106;2023-02-28T09:26:31;11.65;;;1.50;;
58697;SDS011;44475;53.206;-6.106;2023-02-28T09:28:57;13.50;;;2.00;;
58697;SDS011;44475;53.206;-6.106;2023-02-28T09:31:25;13.93;;;1.60;;
58697;SDS011;44475;53.206;-6.106;2023-02-28T09:33:53;8.63;;;1.30;;
58697;SDS011;44475;53.206;-6.106;2023-02-28T09:36:22;9.63;;;1.60;;
58697;SDS011;44475;53.206;-6.106;2023-02-28T09:38:49;9.52;;;1.30;;
58697;SDS011;44475;53.206;-6.106;2023-02-28T09:41:37;5.18;;;1.60;;
58697;SDS011;44475;53.206;-6.106;2023-02-28T09:44:13;6.95;;;1.40;;
58697;SDS011;44475;53.206;-6.106;2023-02-28T09:46:51;11.52;;;1.50;;
58697;SDS011;44475;53.206;-6.106;2023-02-28T09:49:24;4.35;;;1.35;;
58697;SDS011;44475;53.206;-6.106;2023-02-28T09:52:00;5.38;;;1.13;;
58697;SDS011;44475;53.206;-6.106;2023-02-28T09:54:30;5.50;;;1.17;;
58697;SDS011;44475;53.206;-6.106;2023-02-28T09:57:02;6.40;;;1.30;;
58697;SDS011;44475;53.206;-6.106;2023-02-28T10:03:15;4.50;;;1.33;;
58697;SDS011;44475;53.206;-6.106;2023-02-28T10:06:00;5.85;;;1.27;;
58697;SDS011;44475;53.206;-6.106;2023-02-28T10:08:36;3.05;;;1.05;;
58697;SDS011;44475;53.206;-6.106;2023-02-28T10:11:22;3.88;;;1.10;;
58697;SDS011;44475;53.206;-6.106;2023-02-28T10:14:24;4.03;;;1.40;;
58697;SDS011;44475;53.206;-6.106;2023-02-28T10:22:03;3.50;;;1.30;;
58697;SDS011;44475;53.206;-6.106;2023-02-28T10:29:45;5.63;;;1.30;;
58697;SDS011;44475;53.206;-6.106;2023-02-28T10:32:14;3.63;;;1.40;;
58697;SDS011;44475;53.206;-6.106;2023-02-28T10:34:51;3.88;;;1.23;;
58697;SDS011;44475;53.206;-6.106;2023-02-28T10:37:39;6.78;;;1.40;;
58697;SDS011;44475;53.206;-6.106;2023-02-28T10:40:06;2.58;;;1.10;;
58697;SDS011;44475;53.206;-6.106;2023-02-28T10:48:28;4.53;;;1.13;;
58697;SDS011;44475;53.206;-6.106;2023-02-28T10:50:57;4.10;;;1.20;;
58697;SDS011;44475;53.206;-6.106;2023-02-28T11:01:52;2.88;;;1.05;;
58697;SDS011;44475;53.206;-6.106;2023-02-28T11:06:47;2.92;;;1.10;;
58697;SDS011;44475;53.206;-6.106;2023-02-28T11:09:24;4.00;;;1.10;;
58697;SDS011;44475;53.206;-6.106;2023-02-28T11:12:00;2.95;;;1.20;;
58697;SDS011;44475;53.206;-6.106;2023-02-28T11:14:31;2.20;;;1.00;;
58697;SDS011;44475;53.206;-6.106;2023-02-28T11:17:21;2.22;;;0.95;;
58697;SDS011;44475;53.206;-6.106;2023-02-28T11:20:04;2.95;;;1.20;;
58697;SDS011;44475;53.206;-6.106;2023-02-28T11:22:39;6.07;;;1.50;;
58697;SDS011;44475;53.206;-6.106;2023-02-28T11:25:30;4.83;;;1.30;;
58697;SDS011;44475;53.206;-6.106;2023-02-28T11:28:00;1.98;;;1.10;;
58697;SDS011;44475;53.206;-6.106;2023-02-28T11:30:38;5.15;;;1.20;;
58697;SDS011;44475;53.206;-6.106;2023-02-28T11:35:49;7.32;;;1.27;;
58697;SDS011;44475;53.206;-6.106;2023-02-28T11:38:16;6.65;;;1.27;;
58697;SDS011;44475;53.206;-6.106;2023-02-28T12:06:43;4.80;;;1.33;;
58697;SDS011;44475;53.206;-6.106;2023-02-28T12:15:22;28.98;;;2.58;;
58697;SDS011;44475;53.206;-6.106;2023-02-28T12:26:42;13.90;;;1.50;;
58697;SDS011;44475;53.206;-6.106;2023-02-28T12:29:24;13.38;;;2.28;;
58697;SDS011;44475;53.206;-6.106;2023-02-28T12:40:21;8.75;;;2.05;;
58697;SDS011;44475;53.206;-6.106;2023-02-28T12:42:57;10.25;;;1.50;;
58697;SDS011;44475;53.206;-6.106;2023-02-28T12:45:40;7.28;;;1.67;;
58697;SDS011;44475;53.206;-6.106;2023-02-28T12:48:13;9.00;;;1.63;;
58697;SDS011;44475;53.206;-6.106;2023-02-28T12:50:45;8.32;;;1.70;;
58697;SDS011;44475;53.206;-6.106;2023-02-28T12:53:22;6.45;;;1.55;;
58697;SDS011;44475;53.206;-6.106;2023-02-28T12:58:59;4.78;;;1.25;;
58697;SDS011;44475;53.206;-6.106;2023-02-28T13:04:26;7.45;;;1.70;;
58697;SDS011;44475;53.206;-6.106;2023-02-28T13:07:19;10.05;;;1.83;;
58697;SDS011;44475;53.206;-6.106;2023-02-28T13:09:53;6.70;;;1.50;;
58697;SDS011;44475;53.206;-6.106;2023-02-28T13:12:22;5.65;;;1.65;;
58697;SDS011;44475;53.206;-6.106;2023-02-28T13:14:50;6.45;;;1.40;;
58697;SDS011;44475;53.206;-6.106;2023-02-28T13:17:26;4.80;;;1.33;;
58697;SDS011;44475;53.206;-6.106;2023-02-28T13:27:50;4.90;;;1.42;;
58697;SDS011;44475;53.206;-6.106;2023-02-28T13:36:06;4.30;;;1.45;;
58697;SDS011;44475;53.206;-6.106;2023-02-28T13:38:40;5.70;;;1.17;;
58697;SDS011;44475;53.206;-6.106;2023-02-28T13:46:33;3.97;;;1.25;;
58697;SDS011;44475;53.206;-6.106;2023-02-28T13:57:14;3.35;;;1.60;;
58697;SDS011;44475;53.206;-6.106;2023-02-28T13:59:46;2.92;;;1.20;;
58697;SDS011;44475;53.206;-6.106;2023-02-28T14:07:45;4.72;;;1.17;;
58697;SDS011;44475;53.206;-6.106;2023-02-28T14:10:25;2.92;;;1.20;;
58697;SDS011;44475;53.206;-6.106;2023-02-28T14:12:53;2.88;;;1.30;;
58697;SDS011;44475;53.206;-6.106;2023-02-28T14:17:59;3.03;;;1.23;;
58697;SDS011;44475;53.206;-6.106;2023-02-28T14:20:29;2.70;;;1.15;;
58697;SDS011;44475;53.206;-6.106;2023-02-28T14:31:13;1.63;;;1.10;;
58697;SDS011;44475;53.206;-6.106;2023-02-28T14:33:57;3.20;;;1.25;;
58697;SDS011;44475;53.206;-6.106;2023-02-28T14:36:37;3.95;;;1.20;;
58697;SDS011;44475;53.206;-6.106;2023-02-28T14:39:10;2.90;;;1.20;;
58697;SDS011;44475;53.206;-6.106;2023-02-28T14:41:47;2.97;;;1.15;;
58697;SDS011;44475;53.206;-6.106;2023-02-28T14:46:46;2.13;;;1.00;;
58697;SDS011;44475;53.206;-6.106;2023-02-28T14:49:26;4.00;;;1.30;;
58697;SDS011;44475;53.206;-6.106;2023-02-28T14:54:41;13.18;;;1.60;;
58697;SDS011;44475;53.206;-6.106;2023-02-28T14:57:27;12.40;;;2.00;;
58697;SDS011;44475;53.206;-6.106;2023-02-28T15:00:00;10.68;;;1.73;;
58697;SDS011;44475;53.206;-6.106;2023-02-28T15:02:35;13.52;;;1.70;;
58697;SDS011;44475;53.206;-6.106;2023-02-28T15:05:50;12.85;;;1.90;;
58697;SDS011;44475;53.206;-6.106;2023-02-28T15:16:06;8.18;;;1.90;;
58697;SDS011;44475;53.206;-6.106;2023-02-28T15:18:43;10.50;;;1.50;;
58697;SDS011;44475;53.206;-6.106;2023-02-28T15:21:21;4.90;;;1.58;;
58697;SDS011;44475;53.206;-6.106;2023-02-28T15:24:04;6.60;;;1.60;;
58697;SDS011;44475;53.206;-6.106;2023-02-28T15:26:37;9.45;;;1.90;;
58697;SDS011;44475;53.206;-6.106;2023-02-28T15:29:07;9.25;;;1.55;;
58697;SDS011;44475;53.206;-6.106;2023-02-28T15:34:12;8.05;;;1.50;;
58697;SDS011;44475;53.206;-6.106;2023-02-28T15:37:01;6.90;;;1.40;;
58697;SDS011;44475;53.206;-6.106;2023-02-28T15:39:31;9.77;;;1.50;;
58697;SDS011;44475;53.206;-6.106;2023-02-28T15:42:12;4.40;;;1.45;;
58697;SDS011;44475;53.206;-6.106;2023-02-28T15:44:45;6.63;;;1.48;;
58697;SDS011;44475;53.206;-6.106;2023-02-28T15:47:22;4.30;;;1.25;;
58697;SDS011;44475;53.206;-6.106;2023-02-28T15:49:55;5.70;;;1.20;;
58697;SDS011;44475;53.206;-6.106;2023-02-28T15:52:48;7.88;;;1.60;;
58697;SDS011;44475;53.206;-6.106;2023-02-28T15:55:20;6.07;;;1.42;;
58697;SDS011;44475;53.206;-6.106;2023-02-28T15:57:54;5.60;;;1.38;;
58697;SDS011;44475;53.206;-6.106;2023-02-28T16:00:25;5.63;;;1.50;;
58697;SDS011;44475;53.206;-6.106;2023-02-28T16:02:53;4.50;;;1.17;;
58697;SDS011;44475;53.206;-6.106;2023-02-28T16:05:24;6.68;;;1.38;;
58697;SDS011;44475;53.206;-6.106;2023-02-28T16:08:00;1.98;;;1.20;;
58697;SDS011;44475;53.206;-6.106;2023-02-28T16:10:37;5.43;;;1.50;;
58697;SDS011;44475;53.206;-6.106;2023-02-28T16:13:03;3.55;;;1.50;;
58697;SDS011;44475;53.206;-6.106;2023-02-28T16:15:30;4.32;;;1.40;;
58697;SDS011;44475;53.206;-6.106;2023-02-28T16:18:07;4.75;;;1.50;;
58697;SDS011;44475;53.206;-6.106;2023-02-28T16:20:37;4.22;;;1.20;;
58697;SDS011;44475;53.206;-6.106;2023-02-28T16:23:04;4.72;;;1.45;;
58697;SDS011;44475;53.206;-6.106;2023-02-28T16:25:37;4.32;;;1.30;;
58697;SDS011;44475;53.206;-6.106;2023-02-28T16:28:19;2.72;;;1.30;;
58697;SDS011;44475;53.206;-6.106;2023-02-28T16:30:56;3.60;;;1.25;;
58697;SDS011;44475;53.206;-6.106;2023-02-28T16:33:22;2.88;;;1.30;;
58697;SDS011;44475;53.206;-6.106;2023-02-28T16:35:49;11.20;;;1.70;;
58697;SDS011;44475;53.206;-6.106;2023-02-28T16:38:15;14.90;;;1.73;;
58697;SDS011;44475;53.206;-6.106;2023-02-28T16:40:41;11.40;;;1.70;;
58697;SDS011;44475;53.206;-6.106;2023-02-28T16:43:09;12.10;;;2.60;;
58697;SDS011;44475;53.206;-6.106;2023-02-28T16:45:42;13.85;;;3.00;;
58697;SDS011;44475;53.206;-6.106;2023-02-28T16:48:13;14.40;;;3.42;;
58697;SDS011;44475;53.206;-6.106;2023-02-28T16:50:41;13.23;;;3.70;;
58697;SDS011;44475;53.206;-6.106;2023-02-28T16:53:10;16.25;;;3.88;;
58697;SDS011;44475;53.206;-6.106;2023-02-28T16:55:38;14.98;;;3.70;;
58697;SDS011;44475;53.206;-6.106;2023-02-28T16:58:05;14.35;;;3.90;;
58697;SDS011;44475;53.206;-6.106;2023-02-28T17:00:32;13.82;;;3.72;;
58697;SDS011;44475;53.206;-6.106;2023-02-28T17:02:58;16.48;;;3.97;;
58697;SDS011;44475;53.206;-6.106;2023-02-28T17:05:25;14.57;;;3.50;;
58697;SDS011;44475;53.206;-6.106;2023-02-28T17:07:57;15.80;;;3.45;;
58697;SDS011;44475;53.206;-6.106;2023-02-28T17:10:24;13.93;;;3.83;;
58697;SDS011;44475;53.206;-6.106;2023-02-28T17:12:51;17.02;;;3.85;;
58697;SDS011;44475;53.206;-6.106;2023-02-28T17:15:19;15.90;;;3.75;;
58697;SDS011;44475;53.206;-6.106;2023-02-28T17:17:46;11.93;;;2.83;;
58697;SDS011;44475;53.206;-6.106;2023-02-28T17:20:15;15.63;;;2.90;;
58697;SDS011;44475;53.206;-6.106;2023-02-28T17:22:43;10.18;;;3.00;;
58697;SDS011;44475;53.206;-6.106;2023-02-28T17:25:09;11.48;;;2.85;;
58697;SDS011;44475;53.206;-6.106;2023-02-28T17:27:36;12.20;;;2.85;;
58697;SDS011;44475;53.206;-6.106;2023-02-28T17:30:08;15.05;;;3.17;;
58697;SDS011;44475;53.206;-6.106;2023-02-28T17:32:44;13.88;;;3.00;;
58697;SDS011;44475;53.206;-6.106;2023-02-28T17:35:10;13.55;;;3.53;;
58697;SDS011;44475;53.206;-6.106;2023-02-28T17:37:37;15.07;;;3.20;;
58697;SDS011;44475;53.206;-6.106;2023-02-28T17:40:03;10.90;;;2.50;;
58697;SDS011;44475;53.206;-6.106;2023-02-28T17:42:30;9.63;;;2.78;;
58697;SDS011;44475;53.206;-6.106;2023-02-28T17:44:56;14.40;;;2.88;;
58697;SDS011;44475;53.206;-6.106;2023-02-28T17:47:23;11.70;;;2.60;;
58697;SDS011;44475;53.206;-6.106;2023-02-28T17:49:49;10.75;;;2.35;;
58697;SDS011;44475;53.206;-6.106;2023-02-28T17:52:15;10.02;;;2.40;;
58697;SDS011;44475;53.206;-6.106;2023-02-28T17:54:41;12.13;;;2.33;;
58697;SDS011;44475;53.206;-6.106;2023-02-28T17:57:11;10.68;;;2.65;;
58697;SDS011;44475;53.206;-6.106;2023-02-28T17:59:40;10.70;;;2.42;;
58697;SDS011;44475;53.206;-6.106;2023-02-28T18:02:08;9.18;;;2.40;;
58697;SDS011;44475;53.206;-6.106;2023-02-28T18:04:37;6.28;;;2.20;;
58697;SDS011;44475;53.206;-6.106;2023-02-28T18:07:03;8.88;;;2.40;;